createdAt,value
2023-02-11T00:00:23.560Z,1.36
2023-02-11T00:03:10.382Z,1.35
2023-02-11T00:05:37.328Z,1.33
2023-02-11T00:08:04.539Z,1.31
2023-02-11T00:10:31.214Z,1.30
2023-02-11T00:12:57.858Z,1.29
2023-02-11T00:15:24.638Z,1.29
2023-02-11T00:17:51.485Z,1.28
2023-02-11T00:20:18.541Z,1.27
2023-02-11T00:22:45.408Z,1.26
2023-02-11T00:25:12.684Z,1.26
2023-02-11T00:27:39.492Z,1.26
2023-02-11T00:30:07.072Z,1.23
2023-02-11T00:32:34.060Z,1.24
2023-02-11T00:35:01.081Z,1.25
2023-02-11T00:37:28.603Z,1.23
2023-02-11T00:39:55.371Z,1.22
2023-02-11T00:42:22.368Z,1.21
2023-02-11T00:44:49.677Z,1.21
2023-02-11T00:47:16.810Z,1.21
2023-02-11T00:49:46.460Z,1.21
2023-02-11T00:52:13.570Z,1.21
2023-02-11T00:54:40.697Z,1.21
2023-02-11T00:57:07.533Z,1.22
2023-02-11T00:59:34.846Z,1.21
2023-02-11T01:02:01.925Z,1.20
2023-02-11T01:04:28.852Z,1.20
2023-02-11T01:06:55.450Z,1.20
2023-02-11T01:36:41.541Z,1.13
2023-02-11T01:39:09.730Z,1.15
2023-02-11T01:41:38.138Z,1.12
2023-02-11T01:44:45.074Z,1.09
2023-02-11T01:47:13.598Z,1.05
2023-02-11T01:49:48.102Z,1.04
2023-02-11T01:52:26.055Z,1.02
2023-02-11T01:55:18.610Z,0.99
2023-02-11T01:57:52.996Z,0.98
2023-02-11T02:00:26.415Z,0.97
2023-02-11T02:03:22.728Z,0.98
2023-02-11T02:06:01.329Z,0.98
2023-02-11T02:08:57.756Z,0.96
2023-02-11T02:11:26.440Z,0.97
2023-02-11T02:13:54.738Z,0.96
2023-02-11T02:16:35.011Z,0.97
2023-02-11T02:19:30.634Z,0.97
2023-02-11T02:22:28.542Z,0.98
2023-02-11T02:25:14.598Z,0.98
2023-02-11T02:28:16.661Z,0.99
2023-02-11T02:31:31.232Z,0.98
2023-02-11T02:34:17.855Z,1.01
2023-02-11T02:36:58.044Z,1.00
2023-02-11T02:39:31.205Z,0.96
2023-02-11T02:41:59.972Z,0.96
2023-02-11T02:44:29.583Z,0.96
2023-02-11T02:47:00.493Z,0.96
2023-02-11T02:49:28.600Z,0.97
2023-02-11T02:52:11.288Z,0.99
2023-02-11T02:54:54.515Z,0.99
2023-02-11T02:57:22.351Z,0.98
2023-02-11T03:00:09.468Z,0.99
2023-02-11T03:02:56.436Z,1.00
2023-02-11T03:05:48.596Z,1.01
2023-02-11T03:08:18.941Z,1.01
2023-02-11T03:10:51.177Z,1.00
2023-02-11T03:13:24.760Z,1.01
2023-02-11T03:15:56.648Z,1.03
2023-02-11T03:18:29.054Z,1.04
2023-02-11T03:20:58.217Z,1.04
2023-02-11T03:23:53.046Z,1.03
2023-02-11T03:26:44.038Z,1.02
2023-02-11T03:29:18.638Z,1.01
2023-02-11T03:31:58.865Z,1.02
2023-02-11T03:34:42.893Z,1.01
2023-02-11T03:37:37.394Z,0.99
2023-02-11T03:40:11.452Z,0.98
2023-02-11T03:42:58.586Z,0.98
2023-02-11T03:45:28.666Z,0.99
2023-02-11T03:48:26.366Z,0.98
2023-02-11T03:50:56.497Z,0.97
2023-02-11T03:53:24.717Z,0.98
2023-02-11T03:55:56.430Z,0.96
2023-02-11T03:58:25.092Z,0.95
2023-02-11T04:00:53.394Z,0.94
2023-02-11T04:03:22.157Z,0.96
2023-02-11T04:05:50.768Z,0.96
2023-02-11T04:08:19.272Z,0.96
2023-02-11T04:10:47.582Z,0.94
2023-02-11T04:13:15.793Z,0.92
2023-02-11T04:15:44.078Z,0.92
2023-02-11T04:18:12.170Z,0.91
2023-02-11T04:20:40.598Z,0.90
2023-02-11T04:23:08.736Z,0.89
2023-02-11T04:25:36.842Z,0.88
2023-02-11T04:28:05.179Z,0.87
2023-02-11T04:30:33.369Z,0.86
2023-02-11T04:33:01.547Z,0.84
2023-02-11T04:35:29.557Z,0.83
2023-02-11T04:37:58.343Z,0.83
2023-02-11T04:40:26.632Z,0.83
2023-02-11T04:42:55.075Z,0.82
2023-02-11T04:45:22.986Z,0.80
2023-02-11T04:47:51.155Z,0.81
2023-02-11T04:50:19.386Z,0.79
2023-02-11T04:52:47.456Z,0.79
2023-02-11T04:55:15.669Z,0.78
2023-02-11T04:57:43.949Z,0.78
2023-02-11T05:00:12.782Z,0.75
2023-02-11T05:02:40.893Z,0.76
2023-02-11T05:05:09.315Z,0.76
2023-02-11T05:07:37.489Z,0.75
2023-02-11T05:10:06.126Z,0.74
2023-02-11T05:12:34.465Z,0.74
2023-02-11T05:15:05.100Z,0.74
2023-02-11T05:17:33.218Z,0.73
2023-02-11T05:20:01.588Z,0.75
2023-02-11T05:22:30.109Z,0.76
2023-02-11T05:24:58.291Z,0.77
2023-02-11T05:27:26.566Z,0.79
2023-02-11T05:29:54.843Z,0.78
2023-02-11T05:32:25.402Z,0.75
2023-02-11T05:34:53.870Z,0.77
2023-02-11T05:37:22.043Z,0.76
2023-02-11T05:39:50.550Z,0.75
2023-02-11T05:42:19.036Z,0.77
2023-02-11T05:44:50.250Z,0.78
2023-02-11T05:47:21.086Z,0.78
2023-02-11T05:49:49.642Z,0.78
2023-02-11T05:52:17.904Z,0.79
2023-02-11T05:54:48.788Z,0.81
2023-02-11T05:57:17.730Z,0.81
2023-02-11T05:59:46.943Z,0.81
2023-02-11T06:02:17.058Z,0.83
2023-02-11T06:04:45.417Z,0.81
2023-02-11T06:07:13.579Z,0.82
2023-02-11T06:09:51.022Z,0.80
2023-02-11T06:12:19.494Z,0.83
2023-02-11T06:14:50.053Z,0.83
2023-02-11T06:17:18.245Z,0.85
2023-02-11T06:19:48.572Z,0.86
2023-02-11T06:22:17.192Z,0.86
2023-02-11T06:25:00.251Z,0.86
2023-02-11T06:27:29.191Z,0.87
2023-02-11T06:29:57.232Z,0.89
2023-02-11T06:32:45.139Z,0.89
2023-02-11T06:35:16.479Z,0.91
2023-02-11T06:37:44.682Z,0.93
2023-02-11T06:40:12.851Z,0.96
2023-02-11T06:49:55.759Z,1.03
2023-02-11T06:52:24.209Z,1.04
2023-02-11T06:54:53.032Z,1.04
2023-02-11T06:57:22.397Z,1.06
2023-02-11T06:59:50.763Z,1.06
2023-02-11T07:02:20.979Z,1.08
2023-02-11T07:04:50.872Z,1.10
2023-02-11T07:07:19.181Z,1.11
2023-02-11T07:09:51.401Z,1.14
2023-02-11T07:27:11.727Z,1.13
2023-02-11T07:29:40.127Z,1.15
2023-02-11T07:32:08.530Z,1.17
2023-02-11T07:34:38.898Z,1.18
2023-02-11T07:37:07.910Z,1.19
2023-02-11T07:39:36.142Z,1.19
2023-02-11T07:42:04.783Z,1.18
2023-02-11T07:44:33.587Z,1.18
2023-02-11T07:51:32.316Z,1.20
2023-02-11T07:54:00.933Z,1.18
2023-02-11T07:56:38.317Z,1.18
2023-02-11T07:59:07.345Z,1.19
2023-02-11T08:01:35.517Z,1.20
2023-02-11T08:04:03.981Z,1.21
2023-02-11T08:06:37.254Z,1.20
2023-02-11T08:09:17.082Z,1.21
2023-02-11T08:12:22.829Z,1.17
2023-02-11T08:23:38.449Z,1.18
2023-02-11T08:27:32.526Z,1.13
2023-02-11T09:12:49.696Z,1.13
2023-02-11T11:11:37.184Z,1.57
2023-02-11T11:14:39.836Z,1.60
2023-02-11T13:07:37.090Z,2.39
2023-02-11T14:01:33.163Z,2.78
2023-02-11T14:39:40.369Z,2.94
2023-02-11T15:15:40.587Z,3.33
2023-02-11T15:40:06.892Z,3.42
2023-02-11T15:42:47.190Z,3.42
2023-02-11T15:45:36.276Z,3.44
2023-02-11T15:48:44.304Z,3.45
2023-02-11T16:01:39.328Z,3.56
2023-02-11T17:01:16.752Z,3.86
2023-02-11T17:03:48.180Z,3.87
2023-02-11T17:06:29.902Z,3.89
2023-02-11T17:09:00.122Z,3.89
2023-02-11T17:11:37.071Z,3.90
2023-02-11T17:14:05.455Z,3.91
2023-02-11T17:16:32.493Z,3.93
2023-02-11T17:18:59.328Z,3.92
2023-02-11T17:21:28.861Z,3.91
2023-02-11T17:23:59.328Z,3.93
2023-02-11T17:26:26.625Z,3.93
2023-02-11T17:28:53.401Z,3.93
2023-02-11T17:31:20.537Z,3.93
2023-02-11T17:33:50.740Z,3.91
2023-02-11T17:36:18.263Z,3.93
2023-02-11T17:50:10.261Z,4.00
2023-02-11T17:52:42.501Z,4.06
2023-02-11T17:55:19.492Z,4.09
2023-02-11T17:57:48.597Z,4.17
2023-02-11T18:00:19.803Z,4.19
2023-02-11T18:02:47.050Z,4.15
2023-02-11T18:05:17.157Z,4.17
2023-02-11T18:07:47.098Z,4.16
2023-02-11T18:10:16.604Z,4.16
2023-02-11T18:12:47.481Z,4.15
2023-02-11T18:15:15.301Z,4.17
2023-02-11T18:17:45.349Z,4.18
2023-02-11T18:20:12.466Z,4.15
2023-02-11T18:22:40.572Z,4.19
2023-02-11T18:25:08.189Z,4.18
2023-02-11T18:27:35.016Z,4.19
2023-02-11T18:30:01.789Z,4.20
2023-02-11T18:32:28.624Z,4.20
2023-02-11T18:34:55.681Z,4.21
2023-02-11T18:37:22.426Z,4.23
2023-02-11T18:39:49.248Z,4.23
2023-02-11T18:42:16.244Z,4.25
2023-02-11T18:44:43.483Z,4.24
2023-02-11T18:47:10.464Z,4.25
2023-02-11T18:49:37.066Z,4.26
2023-02-11T18:52:04.313Z,4.25
2023-02-11T18:54:31.129Z,4.25
2023-02-11T18:56:57.978Z,4.27
2023-02-11T18:59:24.754Z,4.29
2023-02-11T19:01:51.748Z,4.31
2023-02-11T19:04:19.297Z,4.33
2023-02-11T19:06:48.814Z,4.32
2023-02-11T19:09:18.773Z,4.33
2023-02-11T19:11:53.494Z,4.35
2023-02-11T19:14:23.953Z,4.34
2023-02-11T19:16:53.386Z,4.36
2023-02-11T19:19:22.524Z,4.37
2023-02-11T19:21:50.435Z,4.36
2023-02-11T19:24:19.143Z,4.38
2023-02-11T19:26:47.594Z,4.38
2023-02-11T19:29:14.560Z,4.39
2023-02-11T19:31:42.871Z,4.40
2023-02-11T19:34:12.026Z,4.41
2023-02-11T19:36:39.259Z,4.41
2023-02-11T19:39:06.493Z,4.42
2023-02-11T19:41:33.780Z,4.44
2023-02-11T19:44:01.074Z,4.48
2023-02-11T19:46:31.226Z,4.47
2023-02-11T19:49:02.682Z,4.48
2023-02-11T19:51:33.094Z,4.50
2023-02-11T19:54:00.390Z,4.50
2023-02-11T19:56:30.315Z,4.51
2023-02-11T19:58:57.482Z,4.52
2023-02-11T20:01:25.431Z,4.54
2023-02-11T20:03:54.155Z,4.55
2023-02-11T20:06:27.473Z,4.56
2023-02-11T20:08:59.757Z,4.58
2023-02-11T20:11:29.269Z,4.61
2023-02-11T20:13:57.751Z,4.65
2023-02-11T20:16:44.751Z,4.66
2023-02-11T20:19:20.675Z,4.69
2023-02-11T20:21:52.358Z,4.69
2023-02-11T20:24:22.169Z,4.74
2023-02-11T20:26:56.329Z,4.75
2023-02-11T20:29:24.934Z,4.76
2023-02-11T20:31:53.538Z,4.77
2023-02-11T20:34:21.320Z,4.76
2023-02-11T20:36:51.180Z,4.77
2023-02-11T20:39:20.963Z,4.76
2023-02-11T20:45:18.410Z,4.77
2023-02-11T20:47:56.103Z,4.78
2023-02-11T20:50:26.134Z,4.79
2023-02-11T20:52:53.355Z,4.78
2023-02-11T20:55:20.634Z,4.78
2023-02-11T20:57:48.273Z,4.80
2023-02-11T21:00:15.647Z,4.80
2023-02-11T21:18:03.258Z,4.84
2023-02-11T21:20:30.959Z,4.85
2023-02-11T21:22:58.991Z,4.85
2023-02-11T21:25:27.118Z,4.85
2023-02-11T21:27:57.413Z,4.85
2023-02-11T21:30:26.069Z,4.84
2023-02-11T21:32:53.396Z,4.84
2023-02-11T21:35:20.344Z,4.85
2023-02-11T21:37:47.202Z,4.84
2023-02-11T21:40:14.366Z,4.86
2023-02-11T21:42:43.606Z,4.88
2023-02-11T21:45:10.541Z,4.91
2023-02-11T21:47:37.378Z,4.91
2023-02-11T21:50:04.510Z,4.91
2023-02-11T21:52:31.515Z,4.93
2023-02-11T21:54:58.527Z,4.95
2023-02-11T21:57:25.571Z,4.94
2023-02-11T21:59:53.248Z,4.94
2023-02-11T22:02:20.079Z,4.93
2023-02-11T22:42:03.395Z,4.90
2023-02-11T22:44:30.132Z,4.88
2023-02-11T22:46:59.621Z,4.88
2023-02-11T22:52:40.396Z,4.90
2023-02-11T23:52:50.227Z,4.69
2023-02-11T23:55:17.102Z,4.67
2023-02-11T23:57:44.073Z,4.63
